Terminal Aerodrome Forecast
Issued by NWS

Home | Current Version | Previous Version | Graphics & Text | Print | Product List | Glossary On
Versions: 1 2 3 4 5 6 7 8 9 10 11 12 13 14 15 16 17 18
647
FTUS43 KOAX 202339
TAFCDR
TAF
KCDR 202339Z 2100/2124 13014KT P6SM OVC015
     FM210300 12013KT 3SM -RASN SCT007 BKN015
     FM211600 16007KT P6SM BKN015=

USA.gov is the U.S. government's official web portal to all federal, state and local government web resources and services.